<?xml version="1.0" encoding="UTF-8" standalone="no" ?>
<gpx xmlns="http://www.topografix.com/GPX/1/1" xmlns:xsi="http://www.w3.org/2001/XMLSchema-instance" xsi:schemaLocation="http://www.topografix.com/GPX/1/1 http://www.topografix.com/GPX/1/1/gpx.xsd" version="1.1" creator="VisuGPX - https://www.visugpx.com">
  <metadata>
    <name>20130508</name>
    <desc><![CDATA[Rando du dimanche 08 05 2013]]></desc>
  </metadata>
  <trk>
    <name><![CDATA[Path Segment 1]]></name>
    <trkseg>
      <trkpt lat="47.51813" lon="6.77473">
        <ele>439</ele>
        <time>2013-05-08T07:46:46.593Z</time>
      </trkpt>
      <trkpt lat="47.51748" lon="6.77472">
        <ele>456</ele>
        <time>2013-05-08T07:48:16.569Z</time>
      </trkpt>
      <trkpt lat="47.5171" lon="6.77547">
        <ele>451</ele>
        <time>2013-05-08T07:48:41.545Z</time>
      </trkpt>
      <trkpt lat="47.51523" lon="6.77326">
        <ele>435</ele>
        <time>2013-05-08T07:49:36.544Z</time>
      </trkpt>
      <trkpt lat="47.51495" lon="6.77276">
        <ele>432</ele>
        <time>2013-05-08T07:49:41.546Z</time>
      </trkpt>
      <trkpt lat="47.51489" lon="6.77221">
        <ele>431</ele>
        <time>2013-05-08T07:49:46.543Z</time>
      </trkpt>
      <trkpt lat="47.51469" lon="6.77198">
        <ele>429</ele>
        <time>2013-05-08T07:49:51.559Z</time>
      </trkpt>
      <trkpt lat="47.51401" lon="6.77231">
        <ele>427</ele>
        <time>2013-05-08T07:50:01.543Z</time>
      </trkpt>
      <trkpt lat="47.51346" lon="6.77273">
        <ele>428</ele>
        <time>2013-05-08T07:50:16.543Z</time>
      </trkpt>
      <trkpt lat="47.51315" lon="6.77276">
        <ele>430</ele>
        <time>2013-05-08T07:50:26.543Z</time>
      </trkpt>
      <trkpt lat="47.51266" lon="6.77247">
        <ele>433</ele>
        <time>2013-05-08T07:50:41.540Z</time>
      </trkpt>
      <trkpt lat="47.5118" lon="6.77084">
        <ele>431</ele>
        <time>2013-05-08T07:51:06.547Z</time>
      </trkpt>
      <trkpt lat="47.51154" lon="6.7705">
        <ele>430</ele>
        <time>2013-05-08T07:51:11.538Z</time>
      </trkpt>
      <trkpt lat="47.50969" lon="6.76896">
        <ele>431</ele>
        <time>2013-05-08T07:51:46.551Z</time>
      </trkpt>
      <trkpt lat="47.50931" lon="6.76852">
        <ele>432</ele>
        <time>2013-05-08T07:51:56.540Z</time>
      </trkpt>
      <trkpt lat="47.50826" lon="6.76591">
        <ele>441</ele>
        <time>2013-05-08T07:52:56.542Z</time>
      </trkpt>
      <trkpt lat="47.50802" lon="6.76583">
        <ele>444</ele>
        <time>2013-05-08T07:53:11.539Z</time>
      </trkpt>
      <trkpt lat="47.50676" lon="6.76589">
        <ele>447</ele>
        <time>2013-05-08T07:53:56.538Z</time>
      </trkpt>
      <trkpt lat="47.50284" lon="6.76736">
        <ele>453</ele>
        <time>2013-05-08T07:55:51.558Z</time>
      </trkpt>
      <trkpt lat="47.50194" lon="6.76604">
        <ele>454</ele>
        <time>2013-05-08T07:56:36.538Z</time>
      </trkpt>
      <trkpt lat="47.5014" lon="6.76597">
        <ele>456</ele>
        <time>2013-05-08T07:57:02.116Z</time>
      </trkpt>
      <trkpt lat="47.50135" lon="6.76582">
        <ele>459</ele>
        <time>2013-05-08T07:57:11.549Z</time>
      </trkpt>
      <trkpt lat="47.50188" lon="6.76592">
        <ele>460</ele>
        <time>2013-05-08T07:57:26.543Z</time>
      </trkpt>
      <trkpt lat="47.50217" lon="6.76578">
        <ele>459</ele>
        <time>2013-05-08T07:57:31.546Z</time>
      </trkpt>
      <trkpt lat="47.50234" lon="6.76529">
        <ele>457</ele>
        <time>2013-05-08T07:57:36.545Z</time>
      </trkpt>
      <trkpt lat="47.50228" lon="6.7649">
        <ele>456</ele>
        <time>2013-05-08T07:57:41.543Z</time>
      </trkpt>
      <trkpt lat="47.50201" lon="6.76423">
        <ele>456</ele>
        <time>2013-05-08T07:57:51.556Z</time>
      </trkpt>
      <trkpt lat="47.50153" lon="6.7622">
        <ele>457</ele>
        <time>2013-05-08T07:58:36.538Z</time>
      </trkpt>
      <trkpt lat="47.50123" lon="6.76032">
        <ele>453</ele>
        <time>2013-05-08T07:58:51.547Z</time>
      </trkpt>
      <trkpt lat="47.50107" lon="6.7598">
        <ele>450</ele>
        <time>2013-05-08T07:58:56.538Z</time>
      </trkpt>
      <trkpt lat="47.50032" lon="6.75836">
        <ele>444</ele>
        <time>2013-05-08T07:59:11.531Z</time>
      </trkpt>
      <trkpt lat="47.4997" lon="6.75744">
        <ele>440</ele>
        <time>2013-05-08T07:59:21.553Z</time>
      </trkpt>
      <trkpt lat="47.49926" lon="6.75711">
        <ele>436</ele>
        <time>2013-05-08T07:59:26.540Z</time>
      </trkpt>
      <trkpt lat="47.4987" lon="6.75707">
        <ele>431</ele>
        <time>2013-05-08T07:59:31.538Z</time>
      </trkpt>
      <trkpt lat="47.4977" lon="6.75729">
        <ele>425</ele>
        <time>2013-05-08T07:59:41.537Z</time>
      </trkpt>
      <trkpt lat="47.49688" lon="6.75762">
        <ele>415</ele>
        <time>2013-05-08T07:59:51.545Z</time>
      </trkpt>
      <trkpt lat="47.49646" lon="6.75765">
        <ele>414</ele>
        <time>2013-05-08T07:59:56.533Z</time>
      </trkpt>
      <trkpt lat="47.49603" lon="6.75678">
        <ele>393</ele>
        <time>2013-05-08T08:00:31.546Z</time>
      </trkpt>
      <trkpt lat="47.49583" lon="6.75661">
        <ele>388</ele>
        <time>2013-05-08T08:00:36.538Z</time>
      </trkpt>
      <trkpt lat="47.49505" lon="6.75725">
        <ele>381</ele>
        <time>2013-05-08T08:00:51.553Z</time>
      </trkpt>
      <trkpt lat="47.49481" lon="6.75725">
        <ele>377</ele>
        <time>2013-05-08T08:00:56.542Z</time>
      </trkpt>
      <trkpt lat="47.49472" lon="6.75698">
        <ele>376</ele>
        <time>2013-05-08T08:01:02.200Z</time>
      </trkpt>
      <trkpt lat="47.49427" lon="6.75668">
        <ele>376</ele>
        <time>2013-05-08T08:01:16.539Z</time>
      </trkpt>
      <trkpt lat="47.49302" lon="6.75747">
        <ele>376</ele>
        <time>2013-05-08T08:01:46.540Z</time>
      </trkpt>
      <trkpt lat="47.49266" lon="6.758">
        <ele>377</ele>
        <time>2013-05-08T08:01:56.538Z</time>
      </trkpt>
      <trkpt lat="47.49141" lon="6.76066">
        <ele>375</ele>
        <time>2013-05-08T08:02:36.544Z</time>
      </trkpt>
      <trkpt lat="47.49125" lon="6.76146">
        <ele>374</ele>
        <time>2013-05-08T08:02:46.542Z</time>
      </trkpt>
      <trkpt lat="47.49115" lon="6.76344">
        <ele>375</ele>
        <time>2013-05-08T08:03:11.540Z</time>
      </trkpt>
      <trkpt lat="47.4912" lon="6.7654">
        <ele>376</ele>
        <time>2013-05-08T08:03:36.544Z</time>
      </trkpt>
      <trkpt lat="47.49142" lon="6.76703">
        <ele>375</ele>
        <time>2013-05-08T08:03:56.542Z</time>
      </trkpt>
      <trkpt lat="47.49146" lon="6.76966">
        <ele>372</ele>
        <time>2013-05-08T08:04:31.542Z</time>
      </trkpt>
      <trkpt lat="47.49159" lon="6.77008">
        <ele>371</ele>
        <time>2013-05-08T08:04:36.544Z</time>
      </trkpt>
      <trkpt lat="47.49181" lon="6.77191">
        <ele>371</ele>
        <time>2013-05-08T08:05:31.543Z</time>
      </trkpt>
      <trkpt lat="47.49176" lon="6.77247">
        <ele>370</ele>
        <time>2013-05-08T08:05:41.543Z</time>
      </trkpt>
      <trkpt lat="47.49186" lon="6.77252">
        <ele>367</ele>
        <time>2013-05-08T08:05:51.557Z</time>
      </trkpt>
      <trkpt lat="47.49179" lon="6.77331">
        <ele>366</ele>
        <time>2013-05-08T08:06:06.543Z</time>
      </trkpt>
      <trkpt lat="47.48955" lon="6.77309">
        <ele>368</ele>
        <time>2013-05-08T08:06:56.548Z</time>
      </trkpt>
      <trkpt lat="47.48853" lon="6.77269">
        <ele>367</ele>
        <time>2013-05-08T08:07:16.541Z</time>
      </trkpt>
      <trkpt lat="47.48689" lon="6.77145">
        <ele>366</ele>
        <time>2013-05-08T08:07:51.553Z</time>
      </trkpt>
      <trkpt lat="47.48604" lon="6.77063">
        <ele>366</ele>
        <time>2013-05-08T08:08:11.540Z</time>
      </trkpt>
      <trkpt lat="47.48342" lon="6.76904">
        <ele>364</ele>
        <time>2013-05-08T08:08:56.551Z</time>
      </trkpt>
      <trkpt lat="47.48291" lon="6.76861">
        <ele>363</ele>
        <time>2013-05-08T08:09:06.550Z</time>
      </trkpt>
      <trkpt lat="47.48249" lon="6.76803">
        <ele>363</ele>
        <time>2013-05-08T08:09:16.538Z</time>
      </trkpt>
      <trkpt lat="47.48193" lon="6.76772">
        <ele>362</ele>
        <time>2013-05-08T08:09:26.538Z</time>
      </trkpt>
      <trkpt lat="47.48169" lon="6.76746">
        <ele>364</ele>
        <time>2013-05-08T08:09:31.539Z</time>
      </trkpt>
      <trkpt lat="47.48102" lon="6.76621">
        <ele>364</ele>
        <time>2013-05-08T08:09:51.549Z</time>
      </trkpt>
      <trkpt lat="47.48108" lon="6.76585">
        <ele>365</ele>
        <time>2013-05-08T08:09:56.542Z</time>
      </trkpt>
      <trkpt lat="47.48123" lon="6.76554">
        <ele>366</ele>
        <time>2013-05-08T08:10:01.537Z</time>
      </trkpt>
      <trkpt lat="47.48125" lon="6.76524">
        <ele>367</ele>
        <time>2013-05-08T08:10:06.538Z</time>
      </trkpt>
      <trkpt lat="47.48117" lon="6.76504">
        <ele>367</ele>
        <time>2013-05-08T08:10:11.544Z</time>
      </trkpt>
      <trkpt lat="47.47919" lon="6.76636">
        <ele>369</ele>
        <time>2013-05-08T08:10:56.540Z</time>
      </trkpt>
      <trkpt lat="47.47897" lon="6.76662">
        <ele>368</ele>
        <time>2013-05-08T08:11:01.537Z</time>
      </trkpt>
      <trkpt lat="47.47865" lon="6.7673">
        <ele>369</ele>
        <time>2013-05-08T08:11:16.526Z</time>
      </trkpt>
      <trkpt lat="47.47851" lon="6.76736">
        <ele>373</ele>
        <time>2013-05-08T08:11:27.642Z</time>
      </trkpt>
      <trkpt lat="47.47825" lon="6.76778">
        <ele>374</ele>
        <time>2013-05-08T08:11:37.650Z</time>
      </trkpt>
      <trkpt lat="47.47807" lon="6.76788">
        <ele>374</ele>
        <time>2013-05-08T08:11:42.650Z</time>
      </trkpt>
      <trkpt lat="47.4777" lon="6.76779">
        <ele>372</ele>
        <time>2013-05-08T08:11:52.653Z</time>
      </trkpt>
      <trkpt lat="47.47748" lon="6.76786">
        <ele>372</ele>
        <time>2013-05-08T08:11:57.652Z</time>
      </trkpt>
      <trkpt lat="47.47649" lon="6.76989">
        <ele>369</ele>
        <time>2013-05-08T08:12:32.650Z</time>
      </trkpt>
      <trkpt lat="47.47636" lon="6.77108">
        <ele>370</ele>
        <time>2013-05-08T08:12:52.649Z</time>
      </trkpt>
      <trkpt lat="47.4757" lon="6.77155">
        <ele>368</ele>
        <time>2013-05-08T08:13:08.218Z</time>
      </trkpt>
      <trkpt lat="47.47546" lon="6.77135">
        <ele>367</ele>
        <time>2013-05-08T08:13:12.655Z</time>
      </trkpt>
      <trkpt lat="47.47522" lon="6.7714">
        <ele>367</ele>
        <time>2013-05-08T08:13:17.663Z</time>
      </trkpt>
      <trkpt lat="47.47513" lon="6.77164">
        <ele>367</ele>
        <time>2013-05-08T08:13:22.647Z</time>
      </trkpt>
      <trkpt lat="47.47534" lon="6.77191">
        <ele>370</ele>
        <time>2013-05-08T08:13:27.646Z</time>
      </trkpt>
      <trkpt lat="47.47631" lon="6.77273">
        <ele>367</ele>
        <time>2013-05-08T08:13:47.694Z</time>
      </trkpt>
      <trkpt lat="47.4764" lon="6.77302">
        <ele>367</ele>
        <time>2013-05-08T08:13:52.649Z</time>
      </trkpt>
      <trkpt lat="47.47589" lon="6.77441">
        <ele>370</ele>
        <time>2013-05-08T08:14:17.674Z</time>
      </trkpt>
      <trkpt lat="47.47696" lon="6.776">
        <ele>370</ele>
        <time>2013-05-08T08:14:52.647Z</time>
      </trkpt>
      <trkpt lat="47.47703" lon="6.77862">
        <ele>374</ele>
        <time>2013-05-08T08:15:37.658Z</time>
      </trkpt>
      <trkpt lat="47.47726" lon="6.7801">
        <ele>376</ele>
        <time>2013-05-08T08:16:02.657Z</time>
      </trkpt>
      <trkpt lat="47.47721" lon="6.78062">
        <ele>376</ele>
        <time>2013-05-08T08:16:12.658Z</time>
      </trkpt>
      <trkpt lat="47.47684" lon="6.7818">
        <ele>382</ele>
        <time>2013-05-08T08:16:42.664Z</time>
      </trkpt>
      <trkpt lat="47.4769" lon="6.78218">
        <ele>386</ele>
        <time>2013-05-08T08:16:52.652Z</time>
      </trkpt>
      <trkpt lat="47.47683" lon="6.7837">
        <ele>394</ele>
        <time>2013-05-08T08:17:37.648Z</time>
      </trkpt>
      <trkpt lat="47.47701" lon="6.78373">
        <ele>395</ele>
        <time>2013-05-08T08:17:42.642Z</time>
      </trkpt>
      <trkpt lat="47.477" lon="6.78393">
        <ele>395</ele>
        <time>2013-05-08T08:17:47.669Z</time>
      </trkpt>
      <trkpt lat="47.47665" lon="6.78412">
        <ele>393</ele>
        <time>2013-05-08T08:18:12.656Z</time>
      </trkpt>
      <trkpt lat="47.4766" lon="6.78397">
        <ele>397</ele>
        <time>2013-05-08T08:18:32.651Z</time>
      </trkpt>
      <trkpt lat="47.47642" lon="6.78385">
        <ele>399</ele>
        <time>2013-05-08T08:18:52.661Z</time>
      </trkpt>
      <trkpt lat="47.47595" lon="6.78289">
        <ele>403</ele>
        <time>2013-05-08T08:19:32.657Z</time>
      </trkpt>
      <trkpt lat="47.47397" lon="6.78013">
        <ele>400</ele>
        <time>2013-05-08T08:20:32.655Z</time>
      </trkpt>
      <trkpt lat="47.47388" lon="6.77986">
        <ele>399</ele>
        <time>2013-05-08T08:20:37.656Z</time>
      </trkpt>
      <trkpt lat="47.47353" lon="6.78035">
        <ele>400</ele>
        <time>2013-05-08T08:20:57.657Z</time>
      </trkpt>
      <trkpt lat="47.47268" lon="6.78297">
        <ele>418</ele>
        <time>2013-05-08T08:22:12.656Z</time>
      </trkpt>
      <trkpt lat="47.47229" lon="6.78457">
        <ele>421</ele>
        <time>2013-05-08T08:22:57.651Z</time>
      </trkpt>
      <trkpt lat="47.4708" lon="6.78417">
        <ele>417</ele>
        <time>2013-05-08T08:23:47.671Z</time>
      </trkpt>
      <trkpt lat="47.47028" lon="6.78369">
        <ele>414</ele>
        <time>2013-05-08T08:23:57.652Z</time>
      </trkpt>
      <trkpt lat="47.46996" lon="6.7837">
        <ele>410</ele>
        <time>2013-05-08T08:24:02.648Z</time>
      </trkpt>
      <trkpt lat="47.46946" lon="6.78427">
        <ele>406</ele>
        <time>2013-05-08T08:24:17.661Z</time>
      </trkpt>
      <trkpt lat="47.46928" lon="6.78473">
        <ele>406</ele>
        <time>2013-05-08T08:24:27.646Z</time>
      </trkpt>
      <trkpt lat="47.46918" lon="6.78551">
        <ele>404</ele>
        <time>2013-05-08T08:24:42.655Z</time>
      </trkpt>
      <trkpt lat="47.46905" lon="6.78565">
        <ele>402</ele>
        <time>2013-05-08T08:24:47.658Z</time>
      </trkpt>
      <trkpt lat="47.46839" lon="6.7857">
        <ele>411</ele>
        <time>2013-05-08T08:25:27.649Z</time>
      </trkpt>
      <trkpt lat="47.46768" lon="6.78641">
        <ele>420</ele>
        <time>2013-05-08T08:26:22.653Z</time>
      </trkpt>
      <trkpt lat="47.46757" lon="6.78668">
        <ele>421</ele>
        <time>2013-05-08T08:26:32.655Z</time>
      </trkpt>
      <trkpt lat="47.46732" lon="6.78685">
        <ele>425</ele>
        <time>2013-05-08T08:26:57.656Z</time>
      </trkpt>
      <trkpt lat="47.46731" lon="6.78703">
        <ele>421</ele>
        <time>2013-05-08T08:27:07.654Z</time>
      </trkpt>
      <trkpt lat="47.46706" lon="6.78691">
        <ele>422</ele>
        <time>2013-05-08T08:27:27.659Z</time>
      </trkpt>
      <trkpt lat="47.46563" lon="6.78694">
        <ele>437</ele>
        <time>2013-05-08T08:28:52.659Z</time>
      </trkpt>
      <trkpt lat="47.46559" lon="6.78544">
        <ele>445</ele>
        <time>2013-05-08T08:29:22.656Z</time>
      </trkpt>
      <trkpt lat="47.46568" lon="6.78411">
        <ele>443</ele>
        <time>2013-05-08T08:29:42.657Z</time>
      </trkpt>
      <trkpt lat="47.46501" lon="6.78328">
        <ele>433</ele>
        <time>2013-05-08T08:30:17.675Z</time>
      </trkpt>
      <trkpt lat="47.46471" lon="6.78305">
        <ele>433</ele>
        <time>2013-05-08T08:30:32.660Z</time>
      </trkpt>
      <trkpt lat="47.46412" lon="6.78336">
        <ele>436</ele>
        <time>2013-05-08T08:30:57.655Z</time>
      </trkpt>
      <trkpt lat="47.4639" lon="6.78361">
        <ele>440</ele>
        <time>2013-05-08T08:31:12.654Z</time>
      </trkpt>
      <trkpt lat="47.46377" lon="6.78419">
        <ele>448</ele>
        <time>2013-05-08T08:31:42.658Z</time>
      </trkpt>
      <trkpt lat="47.46267" lon="6.78449">
        <ele>456</ele>
        <time>2013-05-08T08:32:37.653Z</time>
      </trkpt>
      <trkpt lat="47.46211" lon="6.78481">
        <ele>462</ele>
        <time>2013-05-08T08:33:07.653Z</time>
      </trkpt>
      <trkpt lat="47.46102" lon="6.78512">
        <ele>468</ele>
        <time>2013-05-08T08:33:52.660Z</time>
      </trkpt>
      <trkpt lat="47.46009" lon="6.78464">
        <ele>461</ele>
        <time>2013-05-08T08:34:22.652Z</time>
      </trkpt>
      <trkpt lat="47.45999" lon="6.78424">
        <ele>462</ele>
        <time>2013-05-08T08:34:32.752Z</time>
      </trkpt>
      <trkpt lat="47.45971" lon="6.78424">
        <ele>461</ele>
        <time>2013-05-08T08:34:37.751Z</time>
      </trkpt>
      <trkpt lat="47.45944" lon="6.78455">
        <ele>459</ele>
        <time>2013-05-08T08:34:42.750Z</time>
      </trkpt>
      <trkpt lat="47.45942" lon="6.78497">
        <ele>455</ele>
        <time>2013-05-08T08:34:47.748Z</time>
      </trkpt>
      <trkpt lat="47.45928" lon="6.78528">
        <ele>450</ele>
        <time>2013-05-08T08:34:52.765Z</time>
      </trkpt>
      <trkpt lat="47.45782" lon="6.78396">
        <ele>425</ele>
        <time>2013-05-08T08:35:22.781Z</time>
      </trkpt>
      <trkpt lat="47.45706" lon="6.78377">
        <ele>421</ele>
        <time>2013-05-08T08:35:32.738Z</time>
      </trkpt>
      <trkpt lat="47.4563" lon="6.78396">
        <ele>415</ele>
        <time>2013-05-08T08:35:42.753Z</time>
      </trkpt>
      <trkpt lat="47.45465" lon="6.78485">
        <ele>409</ele>
        <time>2013-05-08T08:36:07.758Z</time>
      </trkpt>
      <trkpt lat="47.45431" lon="6.78494">
        <ele>407</ele>
        <time>2013-05-08T08:36:12.756Z</time>
      </trkpt>
      <trkpt lat="47.45396" lon="6.78479">
        <ele>404</ele>
        <time>2013-05-08T08:36:17.757Z</time>
      </trkpt>
      <trkpt lat="47.45373" lon="6.78486">
        <ele>401</ele>
        <time>2013-05-08T08:36:22.776Z</time>
      </trkpt>
      <trkpt lat="47.45378" lon="6.78541">
        <ele>396</ele>
        <time>2013-05-08T08:36:32.760Z</time>
      </trkpt>
      <trkpt lat="47.45485" lon="6.78748">
        <ele>390</ele>
        <time>2013-05-08T08:37:02.757Z</time>
      </trkpt>
      <trkpt lat="47.45296" lon="6.7899">
        <ele>386</ele>
        <time>2013-05-08T08:37:57.754Z</time>
      </trkpt>
      <trkpt lat="47.45271" lon="6.79037">
        <ele>385</ele>
        <time>2013-05-08T08:38:07.754Z</time>
      </trkpt>
      <trkpt lat="47.45247" lon="6.79114">
        <ele>386</ele>
        <time>2013-05-08T08:38:22.771Z</time>
      </trkpt>
      <trkpt lat="47.45222" lon="6.79137">
        <ele>388</ele>
        <time>2013-05-08T08:38:32.754Z</time>
      </trkpt>
      <trkpt lat="47.45187" lon="6.79245">
        <ele>393</ele>
        <time>2013-05-08T08:38:57.754Z</time>
      </trkpt>
      <trkpt lat="47.45129" lon="6.79523">
        <ele>387</ele>
        <time>2013-05-08T08:39:37.756Z</time>
      </trkpt>
      <trkpt lat="47.45051" lon="6.79616">
        <ele>388</ele>
        <time>2013-05-08T08:40:02.757Z</time>
      </trkpt>
      <trkpt lat="47.4503" lon="6.79712">
        <ele>392</ele>
        <time>2013-05-08T08:40:47.754Z</time>
      </trkpt>
      <trkpt lat="47.44983" lon="6.79681">
        <ele>401</ele>
        <time>2013-05-08T08:41:27.758Z</time>
      </trkpt>
      <trkpt lat="47.44969" lon="6.79682">
        <ele>401</ele>
        <time>2013-05-08T08:41:37.760Z</time>
      </trkpt>
      <trkpt lat="47.4495" lon="6.79713">
        <ele>405</ele>
        <time>2013-05-08T08:41:57.759Z</time>
      </trkpt>
      <trkpt lat="47.44918" lon="6.79732">
        <ele>406</ele>
        <time>2013-05-08T08:42:22.780Z</time>
      </trkpt>
      <trkpt lat="47.44906" lon="6.79724">
        <ele>407</ele>
        <time>2013-05-08T08:42:32.763Z</time>
      </trkpt>
      <trkpt lat="47.44908" lon="6.79715">
        <ele>408</ele>
        <time>2013-05-08T08:42:42.756Z</time>
      </trkpt>
      <trkpt lat="47.44905" lon="6.79727">
        <ele>409</ele>
        <time>2013-05-08T08:45:22.774Z</time>
      </trkpt>
      <trkpt lat="47.44827" lon="6.79722">
        <ele>410</ele>
        <time>2013-05-08T08:46:38.091Z</time>
      </trkpt>
      <trkpt lat="47.44784" lon="6.79978">
        <ele>408</ele>
        <time>2013-05-08T08:47:32.755Z</time>
      </trkpt>
      <trkpt lat="47.44474" lon="6.79905">
        <ele>424</ele>
        <time>2013-05-08T08:49:27.753Z</time>
      </trkpt>
      <trkpt lat="47.44388" lon="6.79861">
        <ele>432</ele>
        <time>2013-05-08T08:50:12.753Z</time>
      </trkpt>
      <trkpt lat="47.44401" lon="6.79833">
        <ele>436</ele>
        <time>2013-05-08T08:50:27.750Z</time>
      </trkpt>
      <trkpt lat="47.44398" lon="6.79785">
        <ele>442</ele>
        <time>2013-05-08T08:50:47.758Z</time>
      </trkpt>
      <trkpt lat="47.44387" lon="6.79781">
        <ele>444</ele>
        <time>2013-05-08T08:50:57.754Z</time>
      </trkpt>
      <trkpt lat="47.44317" lon="6.79839">
        <ele>461</ele>
        <time>2013-05-08T08:51:52.768Z</time>
      </trkpt>
      <trkpt lat="47.44288" lon="6.7988">
        <ele>473</ele>
        <time>2013-05-08T08:52:27.750Z</time>
      </trkpt>
      <trkpt lat="47.4426" lon="6.79885">
        <ele>476</ele>
        <time>2013-05-08T08:52:52.760Z</time>
      </trkpt>
      <trkpt lat="47.44203" lon="6.79921">
        <ele>486</ele>
        <time>2013-05-08T08:53:57.754Z</time>
      </trkpt>
      <trkpt lat="47.44192" lon="6.79772">
        <ele>492</ele>
        <time>2013-05-08T08:55:07.758Z</time>
      </trkpt>
      <trkpt lat="47.44201" lon="6.79686">
        <ele>495</ele>
        <time>2013-05-08T08:55:27.760Z</time>
      </trkpt>
      <trkpt lat="47.44153" lon="6.79625">
        <ele>498</ele>
        <time>2013-05-08T08:55:57.755Z</time>
      </trkpt>
      <trkpt lat="47.44012" lon="6.7956">
        <ele>508</ele>
        <time>2013-05-08T08:57:02.755Z</time>
      </trkpt>
      <trkpt lat="47.43948" lon="6.79581">
        <ele>514</ele>
        <time>2013-05-08T08:57:32.753Z</time>
      </trkpt>
      <trkpt lat="47.43887" lon="6.7954">
        <ele>515</ele>
        <time>2013-05-08T08:58:02.755Z</time>
      </trkpt>
      <trkpt lat="47.43819" lon="6.79548">
        <ele>527</ele>
        <time>2013-05-08T08:58:32.757Z</time>
      </trkpt>
      <trkpt lat="47.43799" lon="6.79423">
        <ele>524</ele>
        <time>2013-05-08T08:59:12.759Z</time>
      </trkpt>
      <trkpt lat="47.43726" lon="6.79414">
        <ele>521</ele>
        <time>2013-05-08T08:59:37.753Z</time>
      </trkpt>
      <trkpt lat="47.43686" lon="6.79429">
        <ele>524</ele>
        <time>2013-05-08T08:59:52.758Z</time>
      </trkpt>
      <trkpt lat="47.43581" lon="6.79436">
        <ele>528</ele>
        <time>2013-05-08T09:00:32.753Z</time>
      </trkpt>
      <trkpt lat="47.43475" lon="6.79481">
        <ele>529</ele>
        <time>2013-05-08T09:01:12.759Z</time>
      </trkpt>
      <trkpt lat="47.43435" lon="6.79509">
        <ele>528</ele>
        <time>2013-05-08T09:01:32.753Z</time>
      </trkpt>
      <trkpt lat="47.433" lon="6.79556">
        <ele>531</ele>
        <time>2013-05-08T09:02:37.759Z</time>
      </trkpt>
      <trkpt lat="47.43223" lon="6.79552">
        <ele>533</ele>
        <time>2013-05-08T09:03:12.757Z</time>
      </trkpt>
      <trkpt lat="47.43174" lon="6.79561">
        <ele>533</ele>
        <time>2013-05-08T09:03:32.758Z</time>
      </trkpt>
      <trkpt lat="47.43159" lon="6.79591">
        <ele>536</ele>
        <time>2013-05-08T09:03:47.765Z</time>
      </trkpt>
      <trkpt lat="47.43145" lon="6.79598">
        <ele>538</ele>
        <time>2013-05-08T09:03:57.755Z</time>
      </trkpt>
      <trkpt lat="47.43132" lon="6.79579">
        <ele>541</ele>
        <time>2013-05-08T09:04:17.769Z</time>
      </trkpt>
      <trkpt lat="47.43093" lon="6.79582">
        <ele>539</ele>
        <time>2013-05-08T09:04:32.756Z</time>
      </trkpt>
      <trkpt lat="47.43089" lon="6.79567">
        <ele>543</ele>
        <time>2013-05-08T09:09:07.753Z</time>
      </trkpt>
      <trkpt lat="47.43079" lon="6.79584">
        <ele>543</ele>
        <time>2013-05-08T09:09:57.758Z</time>
      </trkpt>
      <trkpt lat="47.42947" lon="6.79582">
        <ele>545</ele>
        <time>2013-05-08T09:10:52.755Z</time>
      </trkpt>
      <trkpt lat="47.42845" lon="6.79556">
        <ele>548</ele>
        <time>2013-05-08T09:11:17.765Z</time>
      </trkpt>
      <trkpt lat="47.42804" lon="6.79561">
        <ele>548</ele>
        <time>2013-05-08T09:11:32.748Z</time>
      </trkpt>
      <trkpt lat="47.42633" lon="6.79526">
        <ele>541</ele>
        <time>2013-05-08T09:12:27.753Z</time>
      </trkpt>
      <trkpt lat="47.42533" lon="6.79529">
        <ele>543</ele>
        <time>2013-05-08T09:12:57.749Z</time>
      </trkpt>
      <trkpt lat="47.42218" lon="6.79454">
        <ele>544</ele>
        <time>2013-05-08T09:14:37.754Z</time>
      </trkpt>
      <trkpt lat="47.42127" lon="6.79447">
        <ele>547</ele>
        <time>2013-05-08T09:15:12.749Z</time>
      </trkpt>
      <trkpt lat="47.42049" lon="6.79465">
        <ele>552</ele>
        <time>2013-05-08T09:15:52.750Z</time>
      </trkpt>
      <trkpt lat="47.4195" lon="6.79525">
        <ele>556</ele>
        <time>2013-05-08T09:16:32.753Z</time>
      </trkpt>
      <trkpt lat="47.41913" lon="6.79638">
        <ele>562</ele>
        <time>2013-05-08T09:17:07.749Z</time>
      </trkpt>
      <trkpt lat="47.41896" lon="6.79782">
        <ele>555</ele>
        <time>2013-05-08T09:17:57.753Z</time>
      </trkpt>
      <trkpt lat="47.41892" lon="6.79885">
        <ele>551</ele>
        <time>2013-05-08T09:18:22.752Z</time>
      </trkpt>
      <trkpt lat="47.41866" lon="6.79986">
        <ele>550</ele>
        <time>2013-05-08T09:18:42.762Z</time>
      </trkpt>
      <trkpt lat="47.41832" lon="6.80016">
        <ele>554</ele>
        <time>2013-05-08T09:19:02.758Z</time>
      </trkpt>
      <trkpt lat="47.41831" lon="6.80028">
        <ele>556</ele>
        <time>2013-05-08T09:19:22.735Z</time>
      </trkpt>
      <trkpt lat="47.41696" lon="6.80025">
        <ele>566</ele>
        <time>2013-05-08T09:21:45.672Z</time>
      </trkpt>
      <trkpt lat="47.41767" lon="6.80126">
        <ele>562</ele>
        <time>2013-05-08T09:22:33.359Z</time>
      </trkpt>
      <trkpt lat="47.41861" lon="6.80221">
        <ele>566</ele>
        <time>2013-05-08T09:23:47.764Z</time>
      </trkpt>
      <trkpt lat="47.41784" lon="6.80151">
        <ele>572</ele>
        <time>2013-05-08T09:25:07.746Z</time>
      </trkpt>
      <trkpt lat="47.4171" lon="6.80111">
        <ele>575</ele>
        <time>2013-05-08T09:25:22.747Z</time>
      </trkpt>
      <trkpt lat="47.41623" lon="6.80041">
        <ele>578</ele>
        <time>2013-05-08T09:25:47.757Z</time>
      </trkpt>
      <trkpt lat="47.41483" lon="6.79952">
        <ele>583</ele>
        <time>2013-05-08T09:26:22.748Z</time>
      </trkpt>
      <trkpt lat="47.41391" lon="6.79827">
        <ele>579</ele>
        <time>2013-05-08T09:26:47.757Z</time>
      </trkpt>
      <trkpt lat="47.41353" lon="6.79746">
        <ele>577</ele>
        <time>2013-05-08T09:27:02.747Z</time>
      </trkpt>
      <trkpt lat="47.41287" lon="6.7972">
        <ele>574</ele>
        <time>2013-05-08T09:27:12.733Z</time>
      </trkpt>
      <trkpt lat="47.41214" lon="6.79733">
        <ele>575</ele>
        <time>2013-05-08T09:27:27.749Z</time>
      </trkpt>
      <trkpt lat="47.41164" lon="6.79779">
        <ele>579</ele>
        <time>2013-05-08T09:27:57.747Z</time>
      </trkpt>
      <trkpt lat="47.41176" lon="6.79796">
        <ele>573</ele>
        <time>2013-05-08T09:28:32.744Z</time>
      </trkpt>
      <trkpt lat="47.41177" lon="6.79768">
        <ele>566</ele>
        <time>2013-05-08T09:29:02.752Z</time>
      </trkpt>
      <trkpt lat="47.41159" lon="6.79758">
        <ele>564</ele>
        <time>2013-05-08T09:29:12.748Z</time>
      </trkpt>
      <trkpt lat="47.41171" lon="6.7972">
        <ele>564</ele>
        <time>2013-05-08T09:29:32.744Z</time>
      </trkpt>
      <trkpt lat="47.41173" lon="6.79667">
        <ele>563</ele>
        <time>2013-05-08T09:29:52.745Z</time>
      </trkpt>
      <trkpt lat="47.41205" lon="6.79544">
        <ele>552</ele>
        <time>2013-05-08T09:30:37.745Z</time>
      </trkpt>
      <trkpt lat="47.41207" lon="6.79446">
        <ele>535</ele>
        <time>2013-05-08T09:31:07.745Z</time>
      </trkpt>
      <trkpt lat="47.41192" lon="6.79466">
        <ele>514</ele>
        <time>2013-05-08T09:31:52.742Z</time>
      </trkpt>
      <trkpt lat="47.41197" lon="6.79469">
        <ele>511</ele>
        <time>2013-05-08T09:32:02.730Z</time>
      </trkpt>
      <trkpt lat="47.41192" lon="6.79464">
        <ele>510</ele>
        <time>2013-05-08T09:32:17.755Z</time>
      </trkpt>
      <trkpt lat="47.41206" lon="6.79459">
        <ele>507</ele>
        <time>2013-05-08T09:32:37.746Z</time>
      </trkpt>
      <trkpt lat="47.41201" lon="6.79464">
        <ele>508</ele>
        <time>2013-05-08T09:32:42.745Z</time>
      </trkpt>
      <trkpt lat="47.41206" lon="6.79457">
        <ele>505</ele>
        <time>2013-05-08T09:32:57.745Z</time>
      </trkpt>
      <trkpt lat="47.41196" lon="6.79469">
        <ele>508</ele>
        <time>2013-05-08T09:33:22.746Z</time>
      </trkpt>
      <trkpt lat="47.41204" lon="6.79451">
        <ele>509</ele>
        <time>2013-05-08T09:33:52.749Z</time>
      </trkpt>
      <trkpt lat="47.41228" lon="6.79276">
        <ele>508</ele>
        <time>2013-05-08T09:34:37.754Z</time>
      </trkpt>
      <trkpt lat="47.4124" lon="6.78937">
        <ele>495</ele>
        <time>2013-05-08T09:35:17.758Z</time>
      </trkpt>
      <trkpt lat="47.41211" lon="6.78859">
        <ele>488</ele>
        <time>2013-05-08T09:35:27.745Z</time>
      </trkpt>
      <trkpt lat="47.41189" lon="6.78833">
        <ele>481</ele>
        <time>2013-05-08T09:35:37.745Z</time>
      </trkpt>
      <trkpt lat="47.41166" lon="6.7884">
        <ele>468</ele>
        <time>2013-05-08T09:35:47.753Z</time>
      </trkpt>
      <trkpt lat="47.4115" lon="6.78829">
        <ele>449</ele>
        <time>2013-05-08T09:36:07.744Z</time>
      </trkpt>
      <trkpt lat="47.41169" lon="6.78815">
        <ele>433</ele>
        <time>2013-05-08T09:36:27.745Z</time>
      </trkpt>
      <trkpt lat="47.41191" lon="6.78756">
        <ele>428</ele>
        <time>2013-05-08T09:36:42.752Z</time>
      </trkpt>
      <trkpt lat="47.41183" lon="6.78727">
        <ele>419</ele>
        <time>2013-05-08T09:36:57.749Z</time>
      </trkpt>
      <trkpt lat="47.41176" lon="6.78726">
        <ele>414</ele>
        <time>2013-05-08T09:37:22.743Z</time>
      </trkpt>
      <trkpt lat="47.41157" lon="6.78636">
        <ele>406</ele>
        <time>2013-05-08T09:37:47.754Z</time>
      </trkpt>
      <trkpt lat="47.41137" lon="6.78467">
        <ele>396</ele>
        <time>2013-05-08T09:38:22.753Z</time>
      </trkpt>
      <trkpt lat="47.41144" lon="6.78248">
        <ele>396</ele>
        <time>2013-05-08T09:39:07.752Z</time>
      </trkpt>
      <trkpt lat="47.41139" lon="6.7819">
        <ele>397</ele>
        <time>2013-05-08T09:39:17.769Z</time>
      </trkpt>
      <trkpt lat="47.41095" lon="6.77964">
        <ele>395</ele>
        <time>2013-05-08T09:39:52.756Z</time>
      </trkpt>
      <trkpt lat="47.41069" lon="6.7788">
        <ele>396</ele>
        <time>2013-05-08T09:40:07.750Z</time>
      </trkpt>
      <trkpt lat="47.41009" lon="6.77772">
        <ele>396</ele>
        <time>2013-05-08T09:40:32.760Z</time>
      </trkpt>
      <trkpt lat="47.41135" lon="6.77599">
        <ele>397</ele>
        <time>2013-05-08T09:41:17.770Z</time>
      </trkpt>
      <trkpt lat="47.41154" lon="6.7756">
        <ele>398</ele>
        <time>2013-05-08T09:41:37.760Z</time>
      </trkpt>
      <trkpt lat="47.41143" lon="6.77577">
        <ele>396</ele>
        <time>2013-05-08T09:41:42.753Z</time>
      </trkpt>
      <trkpt lat="47.4115" lon="6.77603">
        <ele>395</ele>
        <time>2013-05-08T09:41:47.764Z</time>
      </trkpt>
      <trkpt lat="47.41276" lon="6.77749">
        <ele>393</ele>
        <time>2013-05-08T09:42:32.735Z</time>
      </trkpt>
      <trkpt lat="47.41338" lon="6.77887">
        <ele>394</ele>
        <time>2013-05-08T09:42:57.753Z</time>
      </trkpt>
      <trkpt lat="47.41415" lon="6.77799">
        <ele>397</ele>
        <time>2013-05-08T09:43:32.755Z</time>
      </trkpt>
      <trkpt lat="47.41442" lon="6.77725">
        <ele>398</ele>
        <time>2013-05-08T09:43:52.759Z</time>
      </trkpt>
      <trkpt lat="47.41453" lon="6.77666">
        <ele>399</ele>
        <time>2013-05-08T09:44:07.756Z</time>
      </trkpt>
      <trkpt lat="47.41476" lon="6.77622">
        <ele>400</ele>
        <time>2013-05-08T09:44:17.764Z</time>
      </trkpt>
      <trkpt lat="47.41541" lon="6.7761">
        <ele>402</ele>
        <time>2013-05-08T09:44:32.750Z</time>
      </trkpt>
      <trkpt lat="47.41609" lon="6.77629">
        <ele>406</ele>
        <time>2013-05-08T09:44:47.760Z</time>
      </trkpt>
      <trkpt lat="47.41651" lon="6.77657">
        <ele>404</ele>
        <time>2013-05-08T09:44:57.752Z</time>
      </trkpt>
      <trkpt lat="47.41769" lon="6.77654">
        <ele>412</ele>
        <time>2013-05-08T09:45:32.755Z</time>
      </trkpt>
      <trkpt lat="47.41827" lon="6.77615">
        <ele>417</ele>
        <time>2013-05-08T09:45:52.753Z</time>
      </trkpt>
      <trkpt lat="47.41869" lon="6.77507">
        <ele>422</ele>
        <time>2013-05-08T09:46:17.764Z</time>
      </trkpt>
      <trkpt lat="47.41875" lon="6.77515">
        <ele>422</ele>
        <time>2013-05-08T09:46:22.795Z</time>
      </trkpt>
      <trkpt lat="47.41865" lon="6.77545">
        <ele>422</ele>
        <time>2013-05-08T09:46:32.761Z</time>
      </trkpt>
      <trkpt lat="47.41865" lon="6.77626">
        <ele>424</ele>
        <time>2013-05-08T09:46:52.752Z</time>
      </trkpt>
      <trkpt lat="47.41876" lon="6.77639">
        <ele>424</ele>
        <time>2013-05-08T09:46:57.752Z</time>
      </trkpt>
      <trkpt lat="47.41925" lon="6.77639">
        <ele>426</ele>
        <time>2013-05-08T09:47:17.764Z</time>
      </trkpt>
      <trkpt lat="47.41998" lon="6.77586">
        <ele>432</ele>
        <time>2013-05-08T09:47:42.760Z</time>
      </trkpt>
      <trkpt lat="47.42068" lon="6.77637">
        <ele>427</ele>
        <time>2013-05-08T09:47:57.750Z</time>
      </trkpt>
      <trkpt lat="47.42121" lon="6.77642">
        <ele>427</ele>
        <time>2013-05-08T09:48:07.736Z</time>
      </trkpt>
      <trkpt lat="47.42155" lon="6.77661">
        <ele>428</ele>
        <time>2013-05-08T09:48:22.753Z</time>
      </trkpt>
      <trkpt lat="47.42235" lon="6.77666">
        <ele>430</ele>
        <time>2013-05-08T09:48:47.764Z</time>
      </trkpt>
      <trkpt lat="47.42254" lon="6.77658">
        <ele>430</ele>
        <time>2013-05-08T09:48:52.759Z</time>
      </trkpt>
      <trkpt lat="47.42264" lon="6.77636">
        <ele>429</ele>
        <time>2013-05-08T09:48:57.754Z</time>
      </trkpt>
      <trkpt lat="47.42271" lon="6.77577">
        <ele>428</ele>
        <time>2013-05-08T09:49:17.766Z</time>
      </trkpt>
      <trkpt lat="47.42287" lon="6.77536">
        <ele>432</ele>
        <time>2013-05-08T09:49:32.755Z</time>
      </trkpt>
      <trkpt lat="47.4238" lon="6.77551">
        <ele>428</ele>
        <time>2013-05-08T09:50:52.759Z</time>
      </trkpt>
      <trkpt lat="47.42416" lon="6.77482">
        <ele>438</ele>
        <time>2013-05-08T09:51:37.754Z</time>
      </trkpt>
      <trkpt lat="47.42556" lon="6.77467">
        <ele>484</ele>
        <time>2013-05-08T09:53:47.769Z</time>
      </trkpt>
      <trkpt lat="47.4259" lon="6.77441">
        <ele>480</ele>
        <time>2013-05-08T09:54:37.757Z</time>
      </trkpt>
      <trkpt lat="47.42617" lon="6.77388">
        <ele>483</ele>
        <time>2013-05-08T09:55:12.755Z</time>
      </trkpt>
      <trkpt lat="47.42593" lon="6.774">
        <ele>480</ele>
        <time>2013-05-08T09:55:32.738Z</time>
      </trkpt>
      <trkpt lat="47.42585" lon="6.77333">
        <ele>480</ele>
        <time>2013-05-08T09:55:57.755Z</time>
      </trkpt>
      <trkpt lat="47.42641" lon="6.77131">
        <ele>479</ele>
        <time>2013-05-08T09:56:37.744Z</time>
      </trkpt>
      <trkpt lat="47.42667" lon="6.76948">
        <ele>474</ele>
        <time>2013-05-08T09:56:54.231Z</time>
      </trkpt>
      <trkpt lat="47.42703" lon="6.76857">
        <ele>468</ele>
        <time>2013-05-08T09:57:02.747Z</time>
      </trkpt>
      <trkpt lat="47.42708" lon="6.76762">
        <ele>464</ele>
        <time>2013-05-08T09:57:12.750Z</time>
      </trkpt>
      <trkpt lat="47.42725" lon="6.76765">
        <ele>463</ele>
        <time>2013-05-08T09:57:17.744Z</time>
      </trkpt>
      <trkpt lat="47.42758" lon="6.76826">
        <ele>460</ele>
        <time>2013-05-08T09:57:27.752Z</time>
      </trkpt>
      <trkpt lat="47.42719" lon="6.76998">
        <ele>457</ele>
        <time>2013-05-08T09:57:57.887Z</time>
      </trkpt>
      <trkpt lat="47.42778" lon="6.7735">
        <ele>449</ele>
        <time>2013-05-08T09:58:32.861Z</time>
      </trkpt>
      <trkpt lat="47.4278" lon="6.77455">
        <ele>445</ele>
        <time>2013-05-08T09:58:42.847Z</time>
      </trkpt>
      <trkpt lat="47.42808" lon="6.77633">
        <ele>439</ele>
        <time>2013-05-08T09:58:57.851Z</time>
      </trkpt>
      <trkpt lat="47.42816" lon="6.77726">
        <ele>427</ele>
        <time>2013-05-08T09:59:12.854Z</time>
      </trkpt>
      <trkpt lat="47.42851" lon="6.77749">
        <ele>420</ele>
        <time>2013-05-08T09:59:27.848Z</time>
      </trkpt>
      <trkpt lat="47.42897" lon="6.77758">
        <ele>419</ele>
        <time>2013-05-08T09:59:42.850Z</time>
      </trkpt>
      <trkpt lat="47.43032" lon="6.77745">
        <ele>416</ele>
        <time>2013-05-08T10:00:17.851Z</time>
      </trkpt>
      <trkpt lat="47.43191" lon="6.77654">
        <ele>420</ele>
        <time>2013-05-08T10:01:07.862Z</time>
      </trkpt>
      <trkpt lat="47.43286" lon="6.77564">
        <ele>418</ele>
        <time>2013-05-08T10:01:47.854Z</time>
      </trkpt>
      <trkpt lat="47.43316" lon="6.77518">
        <ele>416</ele>
        <time>2013-05-08T10:02:02.853Z</time>
      </trkpt>
      <trkpt lat="47.43411" lon="6.77419">
        <ele>418</ele>
        <time>2013-05-08T10:02:47.853Z</time>
      </trkpt>
      <trkpt lat="47.43493" lon="6.77362">
        <ele>421</ele>
        <time>2013-05-08T10:03:42.854Z</time>
      </trkpt>
      <trkpt lat="47.43559" lon="6.77333">
        <ele>421</ele>
        <time>2013-05-08T10:04:07.851Z</time>
      </trkpt>
      <trkpt lat="47.43668" lon="6.77334">
        <ele>423</ele>
        <time>2013-05-08T10:04:37.851Z</time>
      </trkpt>
      <trkpt lat="47.43738" lon="6.77297">
        <ele>421</ele>
        <time>2013-05-08T10:04:53.013Z</time>
      </trkpt>
      <trkpt lat="47.4373" lon="6.77282">
        <ele>412</ele>
        <time>2013-05-08T10:05:47.835Z</time>
      </trkpt>
      <trkpt lat="47.43737" lon="6.77283">
        <ele>408</ele>
        <time>2013-05-08T10:06:22.860Z</time>
      </trkpt>
      <trkpt lat="47.43717" lon="6.77302">
        <ele>411</ele>
        <time>2013-05-08T10:06:32.852Z</time>
      </trkpt>
      <trkpt lat="47.43695" lon="6.77382">
        <ele>411</ele>
        <time>2013-05-08T10:06:42.846Z</time>
      </trkpt>
      <trkpt lat="47.43677" lon="6.77418">
        <ele>409</ele>
        <time>2013-05-08T10:06:47.857Z</time>
      </trkpt>
      <trkpt lat="47.4367" lon="6.77506">
        <ele>407</ele>
        <time>2013-05-08T10:06:57.862Z</time>
      </trkpt>
      <trkpt lat="47.43692" lon="6.77854">
        <ele>397</ele>
        <time>2013-05-08T10:07:37.841Z</time>
      </trkpt>
      <trkpt lat="47.43706" lon="6.77932">
        <ele>395</ele>
        <time>2013-05-08T10:07:47.860Z</time>
      </trkpt>
      <trkpt lat="47.43766" lon="6.78102">
        <ele>394</ele>
        <time>2013-05-08T10:08:32.861Z</time>
      </trkpt>
      <trkpt lat="47.4401" lon="6.77906">
        <ele>395</ele>
        <time>2013-05-08T10:09:22.871Z</time>
      </trkpt>
      <trkpt lat="47.4426" lon="6.77684">
        <ele>395</ele>
        <time>2013-05-08T10:10:12.856Z</time>
      </trkpt>
      <trkpt lat="47.4429" lon="6.77671">
        <ele>395</ele>
        <time>2013-05-08T10:10:17.853Z</time>
      </trkpt>
      <trkpt lat="47.44383" lon="6.77674">
        <ele>394</ele>
        <time>2013-05-08T10:10:32.857Z</time>
      </trkpt>
      <trkpt lat="47.44635" lon="6.77825">
        <ele>406</ele>
        <time>2013-05-08T10:11:32.856Z</time>
      </trkpt>
      <trkpt lat="47.4474" lon="6.77841">
        <ele>407</ele>
        <time>2013-05-08T10:11:57.859Z</time>
      </trkpt>
      <trkpt lat="47.44872" lon="6.77743">
        <ele>410</ele>
        <time>2013-05-08T10:12:32.841Z</time>
      </trkpt>
      <trkpt lat="47.44912" lon="6.77664">
        <ele>413</ele>
        <time>2013-05-08T10:12:47.861Z</time>
      </trkpt>
      <trkpt lat="47.45051" lon="6.77284">
        <ele>418</ele>
        <time>2013-05-08T10:13:47.845Z</time>
      </trkpt>
      <trkpt lat="47.45101" lon="6.77039">
        <ele>427</ele>
        <time>2013-05-08T10:14:32.856Z</time>
      </trkpt>
      <trkpt lat="47.45224" lon="6.7679">
        <ele>445</ele>
        <time>2013-05-08T10:15:27.861Z</time>
      </trkpt>
      <trkpt lat="47.45239" lon="6.76778">
        <ele>447</ele>
        <time>2013-05-08T10:15:32.838Z</time>
      </trkpt>
      <trkpt lat="47.45291" lon="6.76807">
        <ele>451</ele>
        <time>2013-05-08T10:15:47.851Z</time>
      </trkpt>
      <trkpt lat="47.45563" lon="6.7677">
        <ele>454</ele>
        <time>2013-05-08T10:16:32.855Z</time>
      </trkpt>
      <trkpt lat="47.45691" lon="6.76738">
        <ele>456</ele>
        <time>2013-05-08T10:16:47.851Z</time>
      </trkpt>
      <trkpt lat="47.45873" lon="6.76747">
        <ele>444</ele>
        <time>2013-05-08T10:17:07.854Z</time>
      </trkpt>
      <trkpt lat="47.46153" lon="6.76675">
        <ele>425</ele>
        <time>2013-05-08T10:17:37.863Z</time>
      </trkpt>
      <trkpt lat="47.46277" lon="6.76592">
        <ele>418</ele>
        <time>2013-05-08T10:17:52.858Z</time>
      </trkpt>
      <trkpt lat="47.46679" lon="6.76492">
        <ele>397</ele>
        <time>2013-05-08T10:18:32.858Z</time>
      </trkpt>
      <trkpt lat="47.46772" lon="6.76445">
        <ele>394</ele>
        <time>2013-05-08T10:18:42.855Z</time>
      </trkpt>
      <trkpt lat="47.46819" lon="6.76442">
        <ele>393</ele>
        <time>2013-05-08T10:18:47.856Z</time>
      </trkpt>
      <trkpt lat="47.46866" lon="6.76458">
        <ele>392</ele>
        <time>2013-05-08T10:18:52.862Z</time>
      </trkpt>
      <trkpt lat="47.46953" lon="6.76522">
        <ele>389</ele>
        <time>2013-05-08T10:19:02.855Z</time>
      </trkpt>
      <trkpt lat="47.47049" lon="6.76551">
        <ele>385</ele>
        <time>2013-05-08T10:19:12.856Z</time>
      </trkpt>
      <trkpt lat="47.47378" lon="6.76515">
        <ele>372</ele>
        <time>2013-05-08T10:19:47.852Z</time>
      </trkpt>
      <trkpt lat="47.47445" lon="6.76527">
        <ele>371</ele>
        <time>2013-05-08T10:19:57.861Z</time>
      </trkpt>
      <trkpt lat="47.47471" lon="6.76542">
        <ele>372</ele>
        <time>2013-05-08T10:20:02.856Z</time>
      </trkpt>
      <trkpt lat="47.47568" lon="6.76681">
        <ele>371</ele>
        <time>2013-05-08T10:20:22.864Z</time>
      </trkpt>
      <trkpt lat="47.47733" lon="6.76793">
        <ele>372</ele>
        <time>2013-05-08T10:20:47.910Z</time>
      </trkpt>
      <trkpt lat="47.47828" lon="6.76818">
        <ele>371</ele>
        <time>2013-05-08T10:21:02.851Z</time>
      </trkpt>
      <trkpt lat="47.47918" lon="6.76652">
        <ele>368</ele>
        <time>2013-05-08T10:21:22.862Z</time>
      </trkpt>
      <trkpt lat="47.48025" lon="6.76588">
        <ele>367</ele>
        <time>2013-05-08T10:21:42.853Z</time>
      </trkpt>
      <trkpt lat="47.48105" lon="6.76518">
        <ele>366</ele>
        <time>2013-05-08T10:21:57.855Z</time>
      </trkpt>
      <trkpt lat="47.48171" lon="6.76757">
        <ele>364</ele>
        <time>2013-05-08T10:22:32.851Z</time>
      </trkpt>
      <trkpt lat="47.48236" lon="6.76798">
        <ele>364</ele>
        <time>2013-05-08T10:22:42.854Z</time>
      </trkpt>
      <trkpt lat="47.48285" lon="6.76861">
        <ele>363</ele>
        <time>2013-05-08T10:22:52.862Z</time>
      </trkpt>
      <trkpt lat="47.48346" lon="6.7691">
        <ele>363</ele>
        <time>2013-05-08T10:23:02.854Z</time>
      </trkpt>
      <trkpt lat="47.48615" lon="6.77079">
        <ele>364</ele>
        <time>2013-05-08T10:23:47.859Z</time>
      </trkpt>
      <trkpt lat="47.4873" lon="6.77186">
        <ele>364</ele>
        <time>2013-05-08T10:24:07.857Z</time>
      </trkpt>
      <trkpt lat="47.48844" lon="6.77271">
        <ele>364</ele>
        <time>2013-05-08T10:24:27.859Z</time>
      </trkpt>
      <trkpt lat="47.48966" lon="6.77318">
        <ele>363</ele>
        <time>2013-05-08T10:24:47.863Z</time>
      </trkpt>
      <trkpt lat="47.49247" lon="6.77339">
        <ele>363</ele>
        <time>2013-05-08T10:25:32.858Z</time>
      </trkpt>
      <trkpt lat="47.49279" lon="6.77328">
        <ele>363</ele>
        <time>2013-05-08T10:25:37.862Z</time>
      </trkpt>
      <trkpt lat="47.49343" lon="6.77343">
        <ele>362</ele>
        <time>2013-05-08T10:25:47.869Z</time>
      </trkpt>
      <trkpt lat="47.49611" lon="6.77358">
        <ele>361</ele>
        <time>2013-05-08T10:26:32.840Z</time>
      </trkpt>
      <trkpt lat="47.49727" lon="6.77333">
        <ele>360</ele>
        <time>2013-05-08T10:26:52.869Z</time>
      </trkpt>
      <trkpt lat="47.49754" lon="6.77318">
        <ele>360</ele>
        <time>2013-05-08T10:26:57.856Z</time>
      </trkpt>
      <trkpt lat="47.49903" lon="6.77295">
        <ele>360</ele>
        <time>2013-05-08T10:27:22.855Z</time>
      </trkpt>
      <trkpt lat="47.50041" lon="6.7722">
        <ele>359</ele>
        <time>2013-05-08T10:27:52.856Z</time>
      </trkpt>
      <trkpt lat="47.50121" lon="6.77201">
        <ele>360</ele>
        <time>2013-05-08T10:28:07.862Z</time>
      </trkpt>
      <trkpt lat="47.50154" lon="6.77212">
        <ele>359</ele>
        <time>2013-05-08T10:28:12.847Z</time>
      </trkpt>
      <trkpt lat="47.50574" lon="6.77552">
        <ele>366</ele>
        <time>2013-05-08T10:29:37.854Z</time>
      </trkpt>
      <trkpt lat="47.50604" lon="6.77518">
        <ele>366</ele>
        <time>2013-05-08T10:29:47.857Z</time>
      </trkpt>
      <trkpt lat="47.50724" lon="6.77541">
        <ele>367</ele>
        <time>2013-05-08T10:30:07.855Z</time>
      </trkpt>
      <trkpt lat="47.50849" lon="6.77647">
        <ele>369</ele>
        <time>2013-05-08T10:30:32.851Z</time>
      </trkpt>
      <trkpt lat="47.50909" lon="6.77763">
        <ele>368</ele>
        <time>2013-05-08T10:30:52.851Z</time>
      </trkpt>
      <trkpt lat="47.50939" lon="6.7784">
        <ele>369</ele>
        <time>2013-05-08T10:31:07.851Z</time>
      </trkpt>
      <trkpt lat="47.50951" lon="6.77835">
        <ele>369</ele>
        <time>2013-05-08T10:31:12.852Z</time>
      </trkpt>
      <trkpt lat="47.50966" lon="6.77875">
        <ele>367</ele>
        <time>2013-05-08T10:31:27.852Z</time>
      </trkpt>
      <trkpt lat="47.50961" lon="6.77906">
        <ele>366</ele>
        <time>2013-05-08T10:31:32.851Z</time>
      </trkpt>
      <trkpt lat="47.5098" lon="6.78114">
        <ele>366</ele>
        <time>2013-05-08T10:31:57.850Z</time>
      </trkpt>
      <trkpt lat="47.51124" lon="6.78186">
        <ele>372</ele>
        <time>2013-05-08T10:32:37.847Z</time>
      </trkpt>
      <trkpt lat="47.51136" lon="6.78177">
        <ele>373</ele>
        <time>2013-05-08T10:32:42.850Z</time>
      </trkpt>
      <trkpt lat="47.51179" lon="6.78096">
        <ele>373</ele>
        <time>2013-05-08T10:33:02.852Z</time>
      </trkpt>
      <trkpt lat="47.5121" lon="6.77992">
        <ele>375</ele>
        <time>2013-05-08T10:33:22.852Z</time>
      </trkpt>
      <trkpt lat="47.5125" lon="6.77808">
        <ele>379</ele>
        <time>2013-05-08T10:33:53.417Z</time>
      </trkpt>
      <trkpt lat="47.51405" lon="6.77755">
        <ele>389</ele>
        <time>2013-05-08T10:35:02.844Z</time>
      </trkpt>
      <trkpt lat="47.5144" lon="6.77731">
        <ele>391</ele>
        <time>2013-05-08T10:35:22.852Z</time>
      </trkpt>
      <trkpt lat="47.51558" lon="6.77724">
        <ele>406</ele>
        <time>2013-05-08T10:36:32.852Z</time>
      </trkpt>
      <trkpt lat="47.51664" lon="6.77774">
        <ele>426</ele>
        <time>2013-05-08T10:37:32.852Z</time>
      </trkpt>
      <trkpt lat="47.51698" lon="6.77774">
        <ele>433</ele>
        <time>2013-05-08T10:37:47.869Z</time>
      </trkpt>
      <trkpt lat="47.51733" lon="6.77492">
        <ele>441</ele>
        <time>2013-05-08T10:39:07.851Z</time>
      </trkpt>
      <trkpt lat="47.51743" lon="6.77481">
        <ele>439</ele>
        <time>2013-05-08T10:39:12.848Z</time>
      </trkpt>
      <trkpt lat="47.5181" lon="6.77494">
        <ele>437</ele>
        <time>2013-05-08T10:39:32.858Z</time>
      </trkpt>
      <trkpt lat="47.51795" lon="6.77468">
        <ele>439</ele>
        <time>2013-05-08T10:40:37.854Z</time>
      </trkpt>
      <trkpt lat="47.51804" lon="6.77456">
        <ele>440</ele>
        <time>2013-05-08T10:41:17.874Z</time>
      </trkpt>
      <trkpt lat="47.51814" lon="6.77458">
        <ele>437</ele>
        <time>2013-05-08T10:41:47.870Z</time>
      </trkpt>
      <trkpt lat="47.51804" lon="6.77456">
        <ele>436</ele>
        <time>2013-05-08T10:43:02.855Z</time>
      </trkpt>
      <trkpt lat="47.5181" lon="6.77457">
        <ele>439</ele>
        <time>2013-05-08T10:44:07.859Z</time>
      </trkpt>
      <trkpt lat="47.51797" lon="6.77472">
        <ele>440</ele>
        <time>2013-05-08T10:45:32.834Z</time>
      </trkpt>
    </trkseg>
  </trk>
</gpx>